createdAt,value
2019-03-26T00:02:23.518Z,1.12
2019-03-26T00:04:50.431Z,1.30
2019-03-26T00:07:17.121Z,0.85
2019-03-26T00:09:44.199Z,0.88
2019-03-26T00:12:11.068Z,0.82
2019-03-26T00:14:38.084Z,1.12
2019-03-26T00:17:05.077Z,0.93
2019-03-26T00:19:31.723Z,0.80
2019-03-26T00:21:59.711Z,1.37
2019-03-26T00:24:26.537Z,0.90
2019-03-26T00:26:52.984Z,0.88
2019-03-26T00:29:19.881Z,0.95
2019-03-26T00:31:46.728Z,0.80
2019-03-26T00:34:19.207Z,1.00
2019-03-26T00:36:42.316Z,0.78
2019-03-26T00:39:09.353Z,0.85
2019-03-26T00:41:36.362Z,0.82
2019-03-26T00:44:03.046Z,0.60
2019-03-26T00:46:30.058Z,0.80
2019-03-26T00:48:57.091Z,0.60
2019-03-26T00:51:23.759Z,0.60
2019-03-26T00:53:50.496Z,0.70
2019-03-26T00:56:17.152Z,0.80
2019-03-26T00:58:43.890Z,0.78
2019-03-26T01:01:10.534Z,0.70
2019-03-26T01:03:37.369Z,0.80
2019-03-26T01:06:03.909Z,0.70
2019-03-26T01:08:30.835Z,0.75
2019-03-26T01:10:57.425Z,0.70
2019-03-26T01:13:24.452Z,0.70
2019-03-26T01:15:51.448Z,0.72
2019-03-26T01:18:18.327Z,0.70
2019-03-26T01:20:44.993Z,0.57
2019-03-26T01:23:12.889Z,0.95
2019-03-26T01:25:39.797Z,1.05
2019-03-26T01:28:06.612Z,0.90
2019-03-26T01:30:33.694Z,0.53
2019-03-26T01:33:00.380Z,1.00
2019-03-26T01:35:27.156Z,0.95
2019-03-26T01:37:53.838Z,1.00
2019-03-26T01:40:20.760Z,0.85
2019-03-26T01:42:47.347Z,0.85
2019-03-26T01:45:14.069Z,0.90
2019-03-26T01:47:40.622Z,0.80
2019-03-26T01:50:07.166Z,0.90
2019-03-26T01:52:33.920Z,0.85
2019-03-26T01:55:00.468Z,1.10
2019-03-26T01:57:27.277Z,0.98
2019-03-26T01:59:53.956Z,0.70
2019-03-26T02:02:23.897Z,0.80
2019-03-26T02:05:00.009Z,0.90
2019-03-26T02:07:20.155Z,1.02
2019-03-26T02:09:47.127Z,0.80
2019-03-26T02:12:14.476Z,0.80
2019-03-26T02:14:41.139Z,0.90
2019-03-26T02:17:08.195Z,0.70
2019-03-26T02:19:34.756Z,0.90
2019-03-26T02:22:01.548Z,0.93
2019-03-26T02:24:28.511Z,0.75
2019-03-26T02:26:55.665Z,0.93
2019-03-26T02:29:22.537Z,0.75
2019-03-26T02:31:50.359Z,0.90
2019-03-26T02:34:17.013Z,0.80
2019-03-26T02:36:43.931Z,0.90
2019-03-26T02:39:10.632Z,0.90
2019-03-26T02:41:38.017Z,0.72
2019-03-26T02:44:05.206Z,0.80
2019-03-26T02:46:31.884Z,1.05
2019-03-26T02:48:58.697Z,1.12
2019-03-26T02:51:25.529Z,0.95
2019-03-26T02:53:52.452Z,0.80
2019-03-26T02:56:19.570Z,1.00
2019-03-26T02:58:46.566Z,1.00
2019-03-26T03:01:13.405Z,1.00
2019-03-26T03:03:39.984Z,0.80
2019-03-26T03:06:07.297Z,1.02
2019-03-26T03:08:34.276Z,0.90
2019-03-26T03:11:00.819Z,0.80
2019-03-26T03:13:27.811Z,0.80
2019-03-26T03:15:54.407Z,0.70
2019-03-26T03:18:21.089Z,0.80
2019-03-26T03:20:49.487Z,0.88
2019-03-26T03:23:16.593Z,0.80
2019-03-26T03:25:43.429Z,0.82
2019-03-26T03:28:10.128Z,0.80
2019-03-26T03:30:37.260Z,1.00
2019-03-26T03:33:04.714Z,1.27
2019-03-26T03:35:31.424Z,1.10
2019-03-26T03:37:58.437Z,1.05
2019-03-26T03:40:24.990Z,1.12
2019-03-26T03:42:51.487Z,1.10
2019-03-26T03:45:26.537Z,1.20
2019-03-26T03:47:53.308Z,1.20
2019-03-26T03:50:20.196Z,1.12
2019-03-26T03:52:46.835Z,1.12
2019-03-26T03:55:14.631Z,1.10
2019-03-26T03:57:41.306Z,1.12
2019-03-26T04:00:28.027Z,0.80
2019-03-26T04:02:54.712Z,1.10
2019-03-26T04:05:21.616Z,1.02
2019-03-26T04:07:48.364Z,1.02
2019-03-26T04:10:14.972Z,1.70
2019-03-26T04:12:42.076Z,1.20
2019-03-26T04:15:09.116Z,0.98
2019-03-26T04:17:35.680Z,1.02
2019-03-26T04:20:02.510Z,1.02
2019-03-26T04:22:29.203Z,0.90
2019-03-26T04:24:55.892Z,0.95
2019-03-26T04:27:22.414Z,0.85
2019-03-26T04:29:50.533Z,1.00
2019-03-26T04:32:17.043Z,1.15
2019-03-26T04:34:43.533Z,0.88
2019-03-26T04:37:10.575Z,0.90
2019-03-26T04:39:37.372Z,1.20
2019-03-26T04:42:04.360Z,1.10
2019-03-26T04:44:31.130Z,1.40
2019-03-26T04:46:57.860Z,1.30
2019-03-26T04:49:24.609Z,1.37
2019-03-26T04:51:51.162Z,1.45
2019-03-26T04:54:17.923Z,1.30
2019-03-26T04:56:44.927Z,1.32
2019-03-26T04:59:11.531Z,1.75
2019-03-26T05:01:38.207Z,1.30
2019-03-26T05:04:04.893Z,1.45
2019-03-26T05:06:37.814Z,1.95
2019-03-26T05:09:00.174Z,1.70
2019-03-26T05:11:26.934Z,1.42
2019-03-26T05:13:53.608Z,1.55
2019-03-26T05:16:20.807Z,1.45
2019-03-26T05:18:47.668Z,1.50
2019-03-26T05:21:14.502Z,1.37
2019-03-26T05:23:41.061Z,1.85
2019-03-26T05:26:08.137Z,1.45
2019-03-26T05:28:34.914Z,1.45
2019-03-26T05:31:01.601Z,1.80
2019-03-26T05:33:28.171Z,1.60
2019-03-26T05:35:54.952Z,1.67
2019-03-26T05:38:21.503Z,1.95
2019-03-26T05:40:48.019Z,1.45
2019-03-26T05:43:14.566Z,1.52
2019-03-26T05:45:41.244Z,1.30
2019-03-26T05:48:07.793Z,1.22
2019-03-26T05:50:34.508Z,1.80
2019-03-26T05:53:00.981Z,1.40
2019-03-26T05:55:27.530Z,2.00
2019-03-26T05:57:54.018Z,2.90
2019-03-26T06:00:22.504Z,4.55
2019-03-26T06:02:49.056Z,4.20
2019-03-26T06:05:15.653Z,2.62
2019-03-26T06:07:42.107Z,2.40
2019-03-26T06:10:08.814Z,2.12
2019-03-26T06:12:35.472Z,2.05
2019-03-26T06:15:06.804Z,1.98
2019-03-26T06:17:33.383Z,1.65
2019-03-26T06:20:00.317Z,1.67
2019-03-26T06:22:27.149Z,1.87
2019-03-26T06:24:53.780Z,1.60
2019-03-26T06:27:22.253Z,1.90
2019-03-26T06:29:48.682Z,1.50
2019-03-26T06:32:15.230Z,1.50
2019-03-26T06:34:41.888Z,1.72
2019-03-26T06:37:17.863Z,1.65
2019-03-26T06:39:37.120Z,1.62
2019-03-26T06:42:03.569Z,1.70
2019-03-26T06:44:30.148Z,1.60
2019-03-26T06:46:56.806Z,1.45
2019-03-26T06:49:23.552Z,1.70
2019-03-26T06:51:50.248Z,1.55
2019-03-26T06:54:16.925Z,1.30
2019-03-26T06:56:43.565Z,1.20
2019-03-26T06:59:10.129Z,1.42
2019-03-26T07:01:36.708Z,1.20
2019-03-26T07:04:03.184Z,1.57
2019-03-26T07:06:29.747Z,1.02
2019-03-26T07:08:56.393Z,0.78
2019-03-26T07:11:23.101Z,1.30
2019-03-26T07:13:49.542Z,1.25
2019-03-26T07:16:17.324Z,1.20
2019-03-26T07:18:43.903Z,1.32
2019-03-26T07:21:10.454Z,1.25
2019-03-26T07:23:37.235Z,1.32
2019-03-26T07:26:03.779Z,1.30
2019-03-26T07:28:31.605Z,1.00
2019-03-26T07:30:58.008Z,1.07
2019-03-26T07:33:24.608Z,1.07
2019-03-26T07:35:51.367Z,1.20
2019-03-26T07:38:18.602Z,1.20
2019-03-26T07:40:45.666Z,1.50
2019-03-26T07:43:12.561Z,1.00
2019-03-26T07:45:39.332Z,1.20
2019-03-26T07:48:05.917Z,1.17
2019-03-26T07:50:33.860Z,1.30
2019-03-26T07:53:00.913Z,1.12
2019-03-26T07:55:27.547Z,1.52
2019-03-26T07:57:54.314Z,1.00
2019-03-26T08:00:27.961Z,1.17
2019-03-26T08:02:54.609Z,1.60
2019-03-26T08:05:29.563Z,1.25
2019-03-26T08:07:58.225Z,1.20
2019-03-26T08:10:19.118Z,1.40
2019-03-26T08:12:45.790Z,1.25
2019-03-26T08:15:12.967Z,1.35
2019-03-26T08:17:39.717Z,1.30
2019-03-26T08:20:06.331Z,1.22
2019-03-26T08:22:33.193Z,1.25
2019-03-26T08:24:59.888Z,1.40
2019-03-26T08:27:26.716Z,1.20
2019-03-26T08:29:53.288Z,1.07
2019-03-26T08:32:20.136Z,1.20
2019-03-26T08:34:46.944Z,1.10
2019-03-26T08:37:14.921Z,1.12
2019-03-26T08:39:42.112Z,1.50
2019-03-26T08:42:10.016Z,1.17
2019-03-26T08:44:36.581Z,1.35
2019-03-26T08:47:03.349Z,1.30
2019-03-26T08:49:30.869Z,1.25
2019-03-26T08:51:57.952Z,1.40
2019-03-26T08:54:24.529Z,1.20
2019-03-26T08:56:50.970Z,1.30
2019-03-26T08:59:17.688Z,1.30
2019-03-26T09:01:44.373Z,1.10
2019-03-26T09:04:10.930Z,1.30
2019-03-26T09:06:37.387Z,0.98
2019-03-26T09:09:06.213Z,1.20
2019-03-26T09:11:32.752Z,1.10
2019-03-26T09:13:59.312Z,1.10
2019-03-26T09:16:25.800Z,1.05
2019-03-26T09:18:52.486Z,1.20
2019-03-26T09:21:19.274Z,0.90
2019-03-26T09:23:45.954Z,0.95
2019-03-26T09:26:12.623Z,0.88
2019-03-26T09:28:39.192Z,0.82
2019-03-26T09:31:05.939Z,1.05
2019-03-26T09:33:32.688Z,1.15
2019-03-26T09:35:59.296Z,1.05
2019-03-26T09:38:38.316Z,1.22
2019-03-26T09:40:54.339Z,0.93
2019-03-26T09:43:20.795Z,1.00
2019-03-26T09:45:47.277Z,0.70
2019-03-26T09:48:13.815Z,1.20
2019-03-26T09:50:40.293Z,1.05
2019-03-26T09:53:06.782Z,0.88
2019-03-26T09:55:34.485Z,1.20
2019-03-26T09:58:01.184Z,0.90
2019-03-26T10:00:28.033Z,0.60
2019-03-26T10:02:54.743Z,0.60
2019-03-26T10:05:21.393Z,0.70
2019-03-26T10:07:48.052Z,0.60
2019-03-26T10:10:14.730Z,0.60
2019-03-26T10:12:41.287Z,0.60
2019-03-26T10:15:07.725Z,0.68
2019-03-26T10:17:35.064Z,0.78
2019-03-26T10:20:02.539Z,0.88
2019-03-26T10:22:29.195Z,0.70
2019-03-26T10:24:55.804Z,0.47
2019-03-26T10:27:22.354Z,0.60
2019-03-26T10:29:50.759Z,0.70
2019-03-26T10:32:17.544Z,0.50
2019-03-26T10:34:44.299Z,0.70
2019-03-26T10:37:10.879Z,0.50
2019-03-26T10:39:37.521Z,0.70
2019-03-26T10:42:06.898Z,0.78
2019-03-26T10:44:32.618Z,0.60
2019-03-26T10:46:59.145Z,0.50
2019-03-26T10:49:25.811Z,0.57
2019-03-26T10:51:52.466Z,0.75
2019-03-26T10:54:19.058Z,0.60
2019-03-26T10:56:45.854Z,0.70
2019-03-26T10:59:12.524Z,0.50
2019-03-26T11:01:39.092Z,0.70
2019-03-26T11:04:07.671Z,0.50
2019-03-26T11:06:34.441Z,0.65
2019-03-26T11:09:01.014Z,0.70
2019-03-26T11:11:28.559Z,0.50
2019-03-26T11:13:58.651Z,0.55
2019-03-26T11:16:24.599Z,0.57
2019-03-26T11:18:51.146Z,0.80
2019-03-26T11:21:17.964Z,0.57
2019-03-26T11:23:44.544Z,0.62
2019-03-26T11:26:11.144Z,0.62
2019-03-26T11:28:37.938Z,0.40
2019-03-26T11:31:04.527Z,0.50
2019-03-26T11:33:31.196Z,0.53
2019-03-26T11:35:57.715Z,0.75
2019-03-26T11:38:24.419Z,0.60
2019-03-26T11:40:51.015Z,0.60
2019-03-26T11:43:17.604Z,0.45
2019-03-26T11:45:44.099Z,0.57
2019-03-26T11:48:10.714Z,0.60
2019-03-26T11:50:37.377Z,0.53
2019-03-26T11:53:04.056Z,0.50
2019-03-26T11:55:30.962Z,0.60
2019-03-26T11:57:57.721Z,0.57
2019-03-26T12:00:29.043Z,0.60
2019-03-26T12:02:55.668Z,0.50
2019-03-26T12:05:22.465Z,0.60
2019-03-26T12:07:49.227Z,0.60
2019-03-26T12:10:15.922Z,0.60
2019-03-26T12:12:42.578Z,0.50
2019-03-26T12:15:09.552Z,0.60
2019-03-26T12:17:36.134Z,0.40
2019-03-26T12:20:05.302Z,0.57
2019-03-26T12:22:32.441Z,0.53
2019-03-26T12:24:59.336Z,0.80
2019-03-26T12:27:26.507Z,0.60
2019-03-26T12:29:53.382Z,0.88
2019-03-26T12:32:20.132Z,0.70
2019-03-26T12:34:47.735Z,0.70
2019-03-26T12:37:14.637Z,0.75
2019-03-26T12:39:44.148Z,0.80
2019-03-26T12:42:09.736Z,0.80
2019-03-26T12:44:36.522Z,0.60
2019-03-26T12:47:03.089Z,0.62
2019-03-26T12:49:29.777Z,0.60
2019-03-26T12:51:56.409Z,0.80
2019-03-26T12:54:22.930Z,0.80
2019-03-26T12:56:49.613Z,0.57
2019-03-26T12:59:16.267Z,0.60
2019-03-26T13:01:43.042Z,0.80
2019-03-26T13:04:12.771Z,0.90
2019-03-26T13:06:37.915Z,0.80
2019-03-26T13:09:06.759Z,0.90
2019-03-26T13:11:33.465Z,1.10
2019-03-26T13:14:00.196Z,0.80
2019-03-26T13:16:26.763Z,0.98
2019-03-26T13:18:53.253Z,0.78
2019-03-26T13:21:20.024Z,0.60
2019-03-26T13:23:46.554Z,0.72
2019-03-26T13:26:13.860Z,0.65
2019-03-26T13:28:40.569Z,0.85
2019-03-26T13:31:07.177Z,0.80
2019-03-26T13:33:33.866Z,0.78
2019-03-26T13:36:00.432Z,1.02
2019-03-26T13:38:27.011Z,0.80
2019-03-26T13:40:53.592Z,0.90
2019-03-26T13:43:20.091Z,0.88
2019-03-26T13:45:46.849Z,0.88
2019-03-26T13:48:14.698Z,1.00
2019-03-26T13:50:41.241Z,0.65
2019-03-26T13:53:08.116Z,0.75
2019-03-26T13:55:34.822Z,0.95
2019-03-26T13:58:01.711Z,1.02
2019-03-26T14:00:36.102Z,1.42
2019-03-26T14:03:02.887Z,1.10
2019-03-26T14:05:31.322Z,0.88
2019-03-26T14:07:58.422Z,0.70
2019-03-26T14:10:24.980Z,1.20
2019-03-26T14:12:51.780Z,0.88
2019-03-26T14:15:19.549Z,0.90
2019-03-26T14:17:47.399Z,0.80
2019-03-26T14:20:15.113Z,1.12
2019-03-26T14:22:41.748Z,0.68
2019-03-26T14:25:08.208Z,0.70
2019-03-26T14:30:16.667Z,0.80
2019-03-26T14:32:43.333Z,0.90
2019-03-26T14:35:09.806Z,1.10
2019-03-26T14:37:50.261Z,1.00
2019-03-26T14:40:04.891Z,0.80
2019-03-26T14:42:31.554Z,0.90
2019-03-26T14:44:59.001Z,0.82
2019-03-26T14:47:25.828Z,0.95
2019-03-26T14:49:52.626Z,0.80
2019-03-26T14:52:19.085Z,1.12
2019-03-26T14:54:45.709Z,0.80
2019-03-26T14:57:12.385Z,0.93
2019-03-26T14:59:38.984Z,0.85
2019-03-26T15:02:05.570Z,0.80
2019-03-26T15:04:32.264Z,0.82
2019-03-26T15:06:58.864Z,0.80
2019-03-26T15:09:25.567Z,0.90
2019-03-26T15:11:52.258Z,0.98
2019-03-26T15:14:18.918Z,0.98
2019-03-26T15:16:45.659Z,1.10
2019-03-26T15:19:12.703Z,1.10
2019-03-26T15:21:39.480Z,0.85
2019-03-26T15:24:06.036Z,1.30
2019-03-26T15:26:32.619Z,1.40
2019-03-26T15:29:00.315Z,1.30
2019-03-26T15:31:27.045Z,1.02
2019-03-26T15:33:53.739Z,1.15
2019-03-26T15:36:20.378Z,1.60
2019-03-26T15:38:46.957Z,1.52
2019-03-26T15:41:21.558Z,2.00
2019-03-26T15:43:42.988Z,1.52
2019-03-26T15:46:09.559Z,1.45
2019-03-26T15:48:36.028Z,1.77
2019-03-26T15:51:02.511Z,1.60
2019-03-26T15:53:30.338Z,1.80
2019-03-26T15:55:56.919Z,1.67
2019-03-26T15:58:23.402Z,1.40
2019-03-26T16:00:49.882Z,1.77
2019-03-26T16:03:16.497Z,1.40
2019-03-26T16:05:43.016Z,1.47
2019-03-26T16:08:09.668Z,1.70
2019-03-26T16:10:36.337Z,1.70
2019-03-26T16:13:02.932Z,2.12
2019-03-26T16:15:38.646Z,3.42
2019-03-26T16:17:58.111Z,2.72
2019-03-26T16:20:24.796Z,2.98
2019-03-26T16:22:51.271Z,2.80
2019-03-26T16:25:17.855Z,2.42
2019-03-26T16:27:44.528Z,2.15
2019-03-26T16:30:11.163Z,2.00
2019-03-26T16:32:37.829Z,1.90
2019-03-26T16:35:04.812Z,2.17
2019-03-26T16:37:31.476Z,2.37
2019-03-26T16:39:59.074Z,1.85
2019-03-26T16:42:25.764Z,2.50
2019-03-26T16:44:52.507Z,1.90
2019-03-26T16:47:18.988Z,2.40
2019-03-26T16:49:45.583Z,2.83
2019-03-26T16:52:12.258Z,2.50
2019-03-26T16:54:38.708Z,2.50
2019-03-26T16:57:05.352Z,2.40
2019-03-26T16:59:31.898Z,2.37
2019-03-26T17:01:58.560Z,2.42
2019-03-26T17:04:25.151Z,2.70
2019-03-26T17:06:51.967Z,2.27
2019-03-26T17:09:18.583Z,2.47
2019-03-26T17:11:47.714Z,2.47
2019-03-26T17:14:16.217Z,2.10
2019-03-26T17:16:43.075Z,2.12
2019-03-26T17:19:10.091Z,2.40
2019-03-26T17:21:36.865Z,1.95
2019-03-26T17:24:03.464Z,2.30
2019-03-26T17:26:30.050Z,2.20
2019-03-26T17:28:56.693Z,1.95
2019-03-26T17:31:23.112Z,2.12
2019-03-26T17:33:50.780Z,1.82
2019-03-26T17:36:17.364Z,2.05
2019-03-26T17:38:44.055Z,2.37
2019-03-26T17:41:10.821Z,2.30
2019-03-26T17:43:37.420Z,2.15
2019-03-26T17:46:05.207Z,2.15
2019-03-26T17:48:31.763Z,2.10
2019-03-26T17:50:58.391Z,1.95
2019-03-26T17:53:24.872Z,1.77
2019-03-26T17:55:51.445Z,2.00
2019-03-26T17:58:18.141Z,1.67
2019-03-26T18:00:45.000Z,1.70
2019-03-26T18:03:25.162Z,1.42
2019-03-26T18:05:41.261Z,1.70
2019-03-26T18:08:07.801Z,1.72
2019-03-26T18:10:34.456Z,1.80
2019-03-26T18:13:01.211Z,1.90
2019-03-26T18:15:27.854Z,2.30
2019-03-26T18:17:54.739Z,2.20
2019-03-26T18:20:31.974Z,2.00
2019-03-26T18:22:49.993Z,2.10
2019-03-26T18:25:16.648Z,1.95
2019-03-26T18:27:43.487Z,2.15
2019-03-26T18:30:10.222Z,2.00
2019-03-26T18:32:36.989Z,1.87
2019-03-26T18:35:04.896Z,2.30
2019-03-26T18:37:31.550Z,2.25
2019-03-26T18:39:58.229Z,2.10
2019-03-26T18:42:24.898Z,2.00
2019-03-26T18:44:51.480Z,1.87
2019-03-26T18:47:18.391Z,2.35
2019-03-26T18:49:45.056Z,2.47
2019-03-26T18:52:11.504Z,2.15
2019-03-26T18:54:38.260Z,2.65
2019-03-26T18:57:04.966Z,2.00
2019-03-26T18:59:31.506Z,2.25
2019-03-26T19:01:58.190Z,2.62
2019-03-26T19:04:24.975Z,2.77
2019-03-26T19:06:51.782Z,2.98
2019-03-26T19:09:18.531Z,3.60
2019-03-26T19:11:45.296Z,3.50
2019-03-26T19:14:11.906Z,4.35
2019-03-26T19:16:39.943Z,4.05
2019-03-26T19:19:06.767Z,3.98
2019-03-26T19:21:33.447Z,3.80
2019-03-26T19:24:04.554Z,3.47
2019-03-26T19:26:28.704Z,2.87
2019-03-26T19:28:55.286Z,2.92
2019-03-26T19:31:22.026Z,2.83
2019-03-26T19:33:48.720Z,3.08
2019-03-26T19:36:15.368Z,2.72
2019-03-26T19:38:42.117Z,3.25
2019-03-26T19:41:08.751Z,2.80
2019-03-26T19:43:35.319Z,3.45
2019-03-26T19:46:02.001Z,4.70
2019-03-26T19:48:28.745Z,5.97
2019-03-26T19:50:55.422Z,5.25
2019-03-26T19:53:22.245Z,6.20
2019-03-26T19:55:48.796Z,5.33
2019-03-26T19:58:15.448Z,4.97
2019-03-26T20:00:41.947Z,4.15
2019-03-26T20:03:08.667Z,4.97
2019-03-26T20:05:35.686Z,5.08
2019-03-26T20:08:02.505Z,7.90
2019-03-26T20:10:29.232Z,7.45
2019-03-26T20:12:56.052Z,6.75
2019-03-26T20:15:23.593Z,7.95
2019-03-26T20:17:50.297Z,7.28
2019-03-26T20:20:17.060Z,5.97
2019-03-26T20:22:43.647Z,5.55
2019-03-26T20:25:10.373Z,4.25
2019-03-26T20:27:37.034Z,3.40
2019-03-26T20:30:04.514Z,4.40
2019-03-26T20:32:31.415Z,3.50
2019-03-26T20:34:58.168Z,3.25
2019-03-26T20:37:24.922Z,3.70
2019-03-26T20:39:51.573Z,4.90
2019-03-26T20:42:18.278Z,5.90
2019-03-26T20:44:44.895Z,5.33
2019-03-26T20:47:11.562Z,4.95
2019-03-26T20:49:38.296Z,6.30
2019-03-26T20:52:04.973Z,5.92
2019-03-26T20:54:31.625Z,5.42
2019-03-26T20:56:58.288Z,6.00
2019-03-26T20:59:25.131Z,5.25
2019-03-26T21:01:51.700Z,5.25
2019-03-26T21:04:18.632Z,4.55
2019-03-26T21:06:45.217Z,4.03
2019-03-26T21:09:11.893Z,4.10
2019-03-26T21:11:38.708Z,4.00
2019-03-26T21:14:05.462Z,4.28
2019-03-26T21:16:32.020Z,3.90
2019-03-26T21:18:58.715Z,3.20
2019-03-26T21:21:25.343Z,4.12
2019-03-26T21:23:52.012Z,4.15
2019-03-26T21:26:18.739Z,3.83
2019-03-26T21:28:45.411Z,6.03
2019-03-26T21:31:12.200Z,5.58
2019-03-26T21:33:38.762Z,5.33
2019-03-26T21:36:06.618Z,4.42
2019-03-26T21:38:33.203Z,4.50
2019-03-26T21:40:59.855Z,4.53
2019-03-26T21:43:26.445Z,3.85
2019-03-26T21:45:54.560Z,4.05
2019-03-26T21:48:21.011Z,4.08
2019-03-26T21:50:47.771Z,3.98
2019-03-26T21:53:14.418Z,4.08
2019-03-26T21:55:41.031Z,4.20
2019-03-26T21:58:07.725Z,3.60
2019-03-26T22:00:34.419Z,3.40
2019-03-26T22:03:01.158Z,3.37
2019-03-26T22:05:27.968Z,3.12
2019-03-26T22:07:54.666Z,2.92
2019-03-26T22:10:21.210Z,3.90
2019-03-26T22:12:47.854Z,3.20
2019-03-26T22:15:14.415Z,3.10
2019-03-26T22:17:40.964Z,3.12
2019-03-26T22:20:08.530Z,3.27
2019-03-26T22:22:35.167Z,4.00
2019-03-26T22:25:01.915Z,3.15
2019-03-26T22:27:28.554Z,2.90
2019-03-26T22:29:55.290Z,3.08
2019-03-26T22:32:21.843Z,2.67
2019-03-26T22:34:48.353Z,3.05
2019-03-26T22:37:14.905Z,2.98
2019-03-26T22:39:41.468Z,2.58
2019-03-26T22:42:08.176Z,3.15
2019-03-26T22:44:34.809Z,2.85
2019-03-26T22:47:01.199Z,2.45
2019-03-26T22:49:27.841Z,2.72
2019-03-26T22:51:54.382Z,3.47
2019-03-26T22:54:20.958Z,3.55
2019-03-26T22:56:47.588Z,3.37
2019-03-26T22:59:13.996Z,3.50
2019-03-26T23:01:40.668Z,3.95
2019-03-26T23:04:07.225Z,3.47
2019-03-26T23:06:33.881Z,3.10
2019-03-26T23:09:00.455Z,3.55
2019-03-26T23:11:27.147Z,3.50
2019-03-26T23:13:53.729Z,3.33
2019-03-26T23:16:20.275Z,3.50
2019-03-26T23:18:47.388Z,3.00
2019-03-26T23:21:14.047Z,3.12
2019-03-26T23:23:40.544Z,4.08
2019-03-26T23:26:07.196Z,3.33
2019-03-26T23:28:33.755Z,3.25
2019-03-26T23:31:00.422Z,3.15
2019-03-26T23:33:27.300Z,3.22
2019-03-26T23:35:53.848Z,2.92
2019-03-26T23:38:20.442Z,3.15
2019-03-26T23:40:47.002Z,3.20
2019-03-26T23:43:13.578Z,3.35
2019-03-26T23:45:40.152Z,2.95
2019-03-26T23:48:06.929Z,3.70
2019-03-26T23:50:33.416Z,3.67
2019-03-26T23:53:00.074Z,3.50
2019-03-26T23:55:26.563Z,2.90
2019-03-26T23:57:53.230Z,3.95
